Time;durP1;ratioP1;P1;durP2;ratioP2;P2;SDS_P1;SDS_P2;PMS_P1;PMS_P2;Temp;Humidity;BMP_temperature;BMP_pressure;BME280_temperature;BME280_humidity;BME280_pressure;Samples;Min_cycle;Max_cycle;Signal;HPM_P1;HPM_P2
2022/07/02 00:02:08;;;;;;;0.60;0.10;;;18.70;1.00;;;;;;4956157;29;20741;-73
2022/07/02 00:04:37;;;;;;;0.60;0.20;;;18.70;1.00;;;;;;4955427;29;20486;-73
2022/07/02 00:07:06;;;;;;;0.60;0.10;;;18.70;1.00;;;;;;4955831;29;20451;-73
2022/07/02 00:09:34;;;;;;;0.60;0.20;;;18.50;1.00;;;;;;4952725;29;20462;-73
2022/07/02 00:12:02;;;;;;;0.60;0.10;;;18.50;1.00;;;;;;4936934;29;20951;-73
2022/07/02 00:14:32;;;;;;;0.60;0.10;;;18.50;1.00;;;;;;4936297;29;20572;-73
2022/07/02 00:17:02;;;;;;;0.60;0.10;;;18.50;1.00;;;;;;4936460;29;20459;-73
2022/07/02 00:19:31;;;;;;;0.60;0.10;;;18.50;1.00;;;;;;4941368;29;20454;-73
2022/07/02 00:21:59;;;;;;;0.60;0.10;;;18.50;1.00;;;;;;4956120;29;20447;-73
2022/07/02 00:24:27;;;;;;;0.60;0.20;;;18.60;1.00;;;;;;4956055;29;20463;-73
2022/07/02 00:26:58;;;;;;;0.60;0.10;;;18.50;1.00;;;;;;4955125;29;20457;-73
2022/07/02 00:29:37;;;;;;;0.60;0.20;;;18.60;1.00;;;;;;4938166;29;20448;-73
2022/07/02 00:32:08;;;;;;;0.60;0.20;;;18.60;1.00;;;;;;4955597;29;20450;-74
2022/07/02 00:34:40;;;;;;;0.60;0.20;;;18.50;1.00;;;;;;4955095;29;20566;-73
2022/07/02 00:37:09;;;;;;;1.73;1.63;;;18.50;1.00;;;;;;4955386;29;20814;-73
2022/07/02 00:39:37;;;;;;;0.60;0.10;;;18.50;1.00;;;;;;4952133;29;20854;-73
2022/07/02 00:42:05;;;;;;;0.60;0.10;;;18.50;1.00;;;;;;4936230;29;20825;-73
2022/07/02 00:44:34;;;;;;;0.70;0.30;;;18.50;1.00;;;;;;4936106;29;21006;-73
2022/07/02 00:47:04;;;;;;;0.60;0.10;;;18.40;1.00;;;;;;4935883;29;20991;-74
2022/07/02 00:49:35;;;;;;;0.60;0.10;;;18.40;1.00;;;;;;4937872;29;20443;-73
2022/07/02 00:52:05;;;;;;;2.10;2.00;;;18.30;1.00;;;;;;4955114;29;20447;-73
2022/07/02 00:54:35;;;;;;;0.60;0.10;;;18.40;1.00;;;;;;4954956;29;20483;-74
2022/07/02 00:57:04;;;;;;;0.60;0.10;;;18.30;1.00;;;;;;4954755;29;20477;-72
2022/07/02 00:59:33;;;;;;;0.60;0.10;;;18.20;1.00;;;;;;4953564;29;20443;-72
2022/07/02 01:02:01;;;;;;;0.60;0.10;;;18.20;1.00;;;;;;4935557;29;21061;-72
2022/07/02 01:04:30;;;;;;;0.60;0.10;;;18.20;1.00;;;;;;4935250;29;20479;-74
2022/07/02 01:07:03;;;;;;;0.60;0.10;;;18.20;1.00;;;;;;4935401;29;20882;-73
2022/07/02 01:12:35;;;;;;;0.60;0.10;;;18.20;1.00;;;;;;4895071;29;20461;-73
2022/07/02 01:15:03;;;;;;;0.60;0.10;;;18.20;1.00;;;;;;4940694;29;20533;-73
2022/07/02 01:17:31;;;;;;;0.60;0.20;;;18.20;1.00;;;;;;4954403;29;20453;-73
2022/07/02 01:19:59;;;;;;;0.60;0.20;;;18.20;1.00;;;;;;4949914;29;20456;-73
2022/07/02 01:22:33;;;;;;;0.60;0.20;;;18.20;1.00;;;;;;4935990;29;20454;-73
2022/07/02 01:25:01;;;;;;;0.60;0.20;;;18.20;1.00;;;;;;4935117;29;20840;-73
2022/07/02 01:27:29;;;;;;;0.60;0.10;;;18.20;1.00;;;;;;4934929;29;20974;-73
2022/07/02 01:29:58;;;;;;;0.60;0.10;;;18.20;1.00;;;;;;4939475;29;20451;-73
2022/07/02 01:32:26;;;;;;;0.60;0.13;;;14.80;1.00;;;;;;4954379;29;20474;-72
2022/07/02 01:35:01;;;;;;;0.60;0.20;;;18.10;1.00;;;;;;4954197;29;20577;-73
2022/07/02 01:37:31;;;;;;;0.60;0.10;;;18.10;1.00;;;;;;4952608;29;20457;-73
2022/07/02 01:39:59;;;;;;;0.60;0.10;;;17.90;1.00;;;;;;4954184;29;20451;-73
2022/07/02 01:42:27;;;;;;;0.60;0.10;;;17.90;1.00;;;;;;4952887;29;20447;-73
2022/07/02 01:44:55;;;;;;;0.60;0.10;;;17.80;1.00;;;;;;4954303;29;20478;-73
2022/07/02 01:47:23;;;;;;;0.60;0.30;;;17.80;1.00;;;;;;4946755;29;20522;-72
2022/07/02 01:49:51;;;;;;;0.60;0.20;;;17.70;1.00;;;;;;4934755;29;20462;-72
2022/07/02 01:52:20;;;;;;;0.60;0.10;;;17.60;1.00;;;;;;4935589;29;20539;-73
2022/07/02 01:54:49;;;;;;;0.60;0.10;;;17.60;1.00;;;;;;4934723;29;20862;-74
2022/07/02 01:57:17;;;;;;;0.60;0.10;;;17.60;1.00;;;;;;4940673;29;20451;-73
2022/07/02 01:59:45;;;;;;;0.60;0.10;;;17.60;1.00;;;;;;4953954;29;20449;-74
2022/07/02 02:02:13;;;;;;;0.60;0.20;;;17.50;1.00;;;;;;4954520;29;20454;-73
2022/07/02 02:04:41;;;;;;;0.60;0.10;;;17.50;1.00;;;;;;4954145;29;20840;-72
2022/07/02 02:07:10;;;;;;;0.60;0.10;;;17.50;1.00;;;;;;4949051;29;20813;-73
2022/07/02 02:09:38;;;;;;;0.60;0.20;;;17.30;1.00;;;;;;4935064;29;20447;-73
2022/07/02 02:12:08;;;;;;;0.60;0.10;;;17.30;1.00;;;;;;4935206;29;20542;-73
2022/07/02 02:14:36;;;;;;;0.60;0.10;;;;;;;;;;4936029;29;20487;-73
2022/07/02 02:17:05;;;;;;;0.60;0.20;;;17.30;1.00;;;;;;4939350;29;20817;-73
2022/07/02 02:19:33;;;;;;;0.60;0.10;;;17.30;1.00;;;;;;4954301;29;20537;-72
2022/07/02 02:22:01;;;;;;;0.60;0.20;;;17.30;1.00;;;;;;4953634;28;20451;-73
2022/07/02 02:24:29;;;;;;;0.60;0.20;;;17.20;1.00;;;;;;4953777;29;20491;-73
2022/07/02 02:26:57;;;;;;;0.97;0.93;;;17.20;1.00;;;;;;4950406;29;20463;-73
2022/07/02 02:29:26;;;;;;;0.60;0.20;;;17.20;1.00;;;;;;4934710;29;20460;-74
2022/07/02 02:31:54;;;;;;;0.60;0.20;;;17.10;1.00;;;;;;4935840;29;20949;-73
2022/07/02 02:34:23;;;;;;;0.60;0.10;;;17.10;1.00;;;;;;4934709;29;20496;-73
2022/07/02 02:36:51;;;;;;;0.60;0.20;;;17.10;1.00;;;;;;4935899;29;20487;-73
2022/07/02 02:39:18;;;;;;;0.60;0.20;;;17.10;1.00;;;;;;4953674;29;20459;-73
2022/07/02 02:41:46;;;;;;;0.60;0.10;;;17.20;1.00;;;;;;4953626;29;20958;-73
2022/07/02 02:44:14;;;;;;;0.60;0.10;;;17.10;1.00;;;;;;4953068;29;20478;-73
2022/07/02 02:46:43;;;;;;;0.60;0.10;;;17.10;1.00;;;;;;4952593;29;20446;-73
2022/07/02 02:49:11;;;;;;;0.60;0.10;;;17.10;1.00;;;;;;4934408;29;20457;-73
2022/07/02 02:51:39;;;;;;;0.60;0.20;;;;;;;;;;4934829;29;20444;-73
2022/07/02 02:54:07;;;;;;;0.60;0.10;;;17.20;1.00;;;;;;4934102;29;20487;-73
2022/07/02 02:56:35;;;;;;;0.60;0.17;;;17.20;1.00;;;;;;4934151;29;20518;-73
2022/07/02 02:59:03;;;;;;;0.60;0.20;;;17.10;1.00;;;;;;4952618;29;20902;-73
2022/07/02 03:01:31;;;;;;;0.60;0.10;;;17.10;1.00;;;;;;4953742;29;20452;-73
2022/07/02 03:04:00;;;;;;;0.60;0.10;;;17.10;1.00;;;;;;4953536;29;20572;-73
2022/07/02 03:06:28;;;;;;;0.60;0.20;;;17.10;1.00;;;;;;4973173;23;20495;-74
2022/07/02 03:08:56;;;;;;;0.60;0.10;;;17.10;1.00;;;;;;4970808;28;20484;-76
2022/07/02 03:11:24;;;;;;;0.60;0.10;;;17.00;1.00;;;;;;4972801;28;20445;-76
2022/07/02 03:13:52;;;;;;;0.60;0.20;;;17.00;1.00;;;;;;4972799;28;20441;-74
2022/07/02 03:16:20;;;;;;;0.60;0.10;;;17.00;1.00;;;;;;4972500;28;20466;-75
2022/07/02 03:18:48;;;;;;;0.60;0.10;;;17.00;1.00;;;;;;4956663;28;20462;-75
2022/07/02 03:21:17;;;;;;;0.60;0.20;;;17.00;1.00;;;;;;4954204;29;20748;-75
2022/07/02 03:23:45;;;;;;;0.60;0.17;;;16.90;1.00;;;;;;4953692;29;20972;-74
2022/07/02 03:26:13;;;;;;;0.60;0.10;;;16.80;1.00;;;;;;4953429;29;20494;-74
2022/07/02 03:28:41;;;;;;;0.60;0.10;;;16.80;1.00;;;;;;4949984;28;20466;-75
2022/07/02 03:31:09;;;;;;;0.60;0.10;;;16.80;1.00;;;;;;4933952;28;20456;-76
2022/07/02 03:33:38;;;;;;;0.60;0.10;;;16.80;1.00;;;;;;4936767;29;21032;-76
2022/07/02 03:36:07;;;;;;;0.60;0.10;;;16.80;1.00;;;;;;4936965;29;20490;-75
2022/07/02 03:38:36;;;;;;;0.60;0.10;;;16.80;1.00;;;;;;4965245;28;20837;-76
2022/07/02 03:41:06;;;;;;;0.60;0.20;;;16.80;1.00;;;;;;4976273;28;20435;-75
2022/07/02 03:43:34;;;;;;;0.60;0.10;;;16.80;1.00;;;;;;4975793;28;20468;-76
2022/07/02 03:46:02;;;;;;;0.60;0.20;;;16.80;1.00;;;;;;4975859;28;20462;-76
2022/07/02 03:48:30;;;;;;;0.60;0.10;;;16.80;1.00;;;;;;4962309;28;20451;-76
2022/07/02 03:50:58;;;;;;;0.60;0.10;;;16.80;1.00;;;;;;4956508;29;20453;-76
2022/07/02 03:53:26;;;;;;;0.60;0.10;;;16.80;1.00;;;;;;4957006;29;20473;-76
2022/07/02 03:55:55;;;;;;;0.60;0.20;;;16.80;1.00;;;;;;4962149;28;20481;-76
2022/07/02 03:58:23;;;;;;;0.60;0.10;;;16.90;1.00;;;;;;4976587;28;20449;-76
2022/07/02 04:00:51;;;;;;;0.60;0.10;;;16.90;1.00;;;;;;4977171;28;20545;-75
2022/07/02 04:03:19;;;;;;;0.60;0.10;;;17.00;1.00;;;;;;4976878;28;20453;-75
2022/07/02 04:05:47;;;;;;;0.60;0.20;;;17.00;1.00;;;;;;4971802;28;20541;-75
2022/07/02 04:08:17;;;;;;;0.60;0.10;;;17.00;1.00;;;;;;4956550;29;20458;-75
2022/07/02 04:10:45;;;;;;;0.60;0.10;;;16.90;1.00;;;;;;4956410;29;20538;-75
2022/07/02 04:13:15;;;;;;;0.60;0.20;;;16.90;1.00;;;;;;4956235;29;20545;-75
2022/07/02 04:15:43;;;;;;;0.60;0.10;;;16.90;1.00;;;;;;4961537;28;21016;-76
2022/07/02 04:18:11;;;;;;;0.60;0.10;;;16.90;1.00;;;;;;4974927;28;20537;-75
2022/07/02 04:20:39;;;;;;;0.60;0.20;;;17.00;1.00;;;;;;4975754;28;20472;-76
2022/07/02 04:23:07;;;;;;;0.60;0.10;;;17.10;1.00;;;;;;4975819;28;20543;-76
2022/07/02 04:25:34;;;;;;;0.60;0.10;;;17.10;1.00;;;;;;4970050;28;20482;-76
2022/07/02 04:28:02;;;;;;;0.60;0.10;;;17.10;1.00;;;;;;4956413;29;20459;-75
2022/07/02 04:30:32;;;;;;;0.60;0.20;;;17.20;1.00;;;;;;4955913;29;20538;-75
2022/07/02 04:33:00;;;;;;;0.60;0.10;;;17.30;1.00;;;;;;4956931;28;20451;-75
2022/07/02 04:35:28;;;;;;;0.60;0.20;;;17.30;1.00;;;;;;4955674;29;20514;-75
2022/07/02 04:37:56;;;;;;;0.60;0.10;;;17.20;1.00;;;;;;4956117;29;20829;-75
2022/07/02 04:40:24;;;;;;;0.60;0.10;;;17.10;1.00;;;;;;4960276;28;20450;-75
2022/07/02 04:42:52;;;;;;;0.60;0.10;;;17.10;1.00;;;;;;4977611;28;20993;-75
2022/07/02 04:45:20;;;;;;;0.60;0.20;;;17.20;1.00;;;;;;4993140;28;20486;-75
2022/07/02 04:47:50;;;;;;;0.60;0.20;;;17.30;1.00;;;;;;4993077;28;20453;-75
2022/07/02 04:50:17;;;;;;;0.60;0.20;;;17.30;1.00;;;;;;4978227;28;20460;-76
2022/07/02 04:52:48;;;;;;;0.60;0.20;;;17.30;1.00;;;;;;4958829;29;20788;-76
2022/07/02 04:55:16;;;;;;;0.60;0.10;;;17.40;1.00;;;;;;4957551;29;20573;-76
2022/07/02 04:57:44;;;;;;;0.60;0.13;;;17.40;1.00;;;;;;4956946;29;20459;-76
2022/07/02 05:00:13;;;;;;;0.60;0.10;;;17.40;1.00;;;;;;4957567;28;20498;-76
2022/07/02 05:02:41;;;;;;;0.60;0.10;;;17.50;1.00;;;;;;4975934;28;20442;-76
2022/07/02 05:05:11;;;;;;;0.60;0.10;;;17.50;1.00;;;;;;4975223;28;20478;-76
2022/07/02 05:07:38;;;;;;;0.60;0.10;;;17.50;1.00;;;;;;4974792;28;20446;-76
2022/07/02 05:10:07;;;;;;;0.60;0.10;;;17.50;1.00;;;;;;4972308;28;20457;-76
2022/07/02 05:12:34;;;;;;;0.60;0.20;;;17.50;1.00;;;;;;4955378;29;20459;-76
2022/07/02 05:15:03;;;;;;;0.60;0.10;;;17.50;1.00;;;;;;4955319;29;20474;-76
2022/07/02 05:17:30;;;;;;;0.60;0.20;;;17.50;1.00;;;;;;4954979;29;20447;-76
2022/07/02 05:19:58;;;;;;;0.70;0.37;;;17.60;1.00;;;;;;4956107;28;20548;-76
2022/07/02 05:22:27;;;;;;;0.60;0.20;;;17.60;1.00;;;;;;4973987;28;20453;-76
2022/07/02 05:24:55;;;;;;;0.60;0.10;;;17.50;1.00;;;;;;4974512;28;20470;-76
2022/07/02 05:27:23;;;;;;;0.60;0.10;;;17.50;1.00;;;;;;4970833;28;20457;-76
2022/07/02 05:29:51;;;;;;;0.60;0.10;;;17.50;1.00;;;;;;4956125;29;20528;-76
2022/07/02 05:32:19;;;;;;;0.60;0.10;;;17.60;1.00;;;;;;4975386;28;20462;-76
2022/07/02 05:34:47;;;;;;;0.60;0.10;;;17.60;1.00;;;;;;4976150;28;20454;-76
2022/07/02 05:37:15;;;;;;;0.70;0.53;;;17.60;1.00;;;;;;4975078;28;20486;-76
2022/07/02 05:39:44;;;;;;;0.60;0.20;;;17.70;1.00;;;;;;4975036;28;20961;-77
2022/07/02 05:42:12;;;;;;;0.60;0.10;;;17.70;1.00;;;;;;4956858;28;20461;-77
2022/07/02 05:44:40;;;;;;;0.60;0.10;;;17.80;1.00;;;;;;4954898;29;20529;-75
2022/07/02 05:47:09;;;;;;;0.70;0.43;;;17.80;1.00;;;;;;4954858;29;20454;-76
2022/07/02 05:49:37;;;;;;;0.60;0.20;;;17.90;1.00;;;;;;4954557;29;20530;-75
2022/07/02 05:52:05;;;;;;;0.60;0.10;;;17.90;1.00;;;;;;4961496;28;20466;-75
2022/07/02 05:54:33;;;;;;;0.60;0.10;;;18.00;1.00;;;;;;4972988;28;20462;-76
2022/07/02 05:57:02;;;;;;;0.60;0.10;;;18.00;1.00;;;;;;4955354;28;21017;-76
2022/07/02 05:59:30;;;;;;;0.60;0.20;;;18.10;1.00;;;;;;4954788;29;20455;-76
2022/07/02 06:01:58;;;;;;;0.60;0.10;;;18.10;1.00;;;;;;4971038;28;20458;-76
2022/07/02 06:04:26;;;;;;;0.60;0.10;;;18.10;1.00;;;;;;4976255;28;20540;-76
2022/07/02 06:09:40;;;;;;;0.60;0.20;;;18.20;1.00;;;;;;4974544;28;20476;-76
2022/07/02 06:12:10;;;;;;;0.60;0.10;;;18.20;1.00;;;;;;4958373;28;20459;-75
2022/07/02 06:14:38;;;;;;;0.60;0.20;;;18.30;1.00;;;;;;4953361;29;20459;-76
2022/07/02 06:17:06;;;;;;;0.60;0.13;;;18.40;1.00;;;;;;4954116;29;20486;-76
2022/07/02 06:19:34;;;;;;;0.60;0.20;;;18.40;1.00;;;;;;4954952;29;20449;-76
2022/07/02 06:22:02;;;;;;;0.60;0.10;;;18.40;1.00;;;;;;4970404;28;20961;-77
2022/07/02 06:24:30;;;;;;;0.60;0.10;;;18.50;1.00;;;;;;4976939;28;20444;-76
2022/07/02 06:26:58;;;;;;;0.60;0.10;;;18.50;1.00;;;;;;4977471;28;20477;-76
2022/07/02 06:29:27;;;;;;;0.60;0.10;;;18.60;1.00;;;;;;4958767;29;20451;-75
2022/07/02 06:31:55;;;;;;;0.60;0.20;;;18.60;1.00;;;;;;4972714;28;20884;-76
2022/07/02 06:34:23;;;;;;;0.60;0.10;;;18.60;1.00;;;;;;4978852;28;20983;-75
2022/07/02 06:36:51;;;;;;;0.60;0.10;;;18.60;1.00;;;;;;4975862;28;20585;-76
2022/07/02 06:39:26;;;;;;;0.60;0.20;;;18.70;1.00;;;;;;4974553;28;20449;-76
2022/07/02 06:44:40;;;;;;;0.60;0.20;;;18.70;1.00;;;;;;4954473;29;20493;-76
2022/07/02 06:47:09;;;;;;;0.60;0.20;;;18.70;1.00;;;;;;4954078;29;20474;-77
2022/07/02 06:49:37;;;;;;;0.60;0.20;;;18.70;1.00;;;;;;4954923;29;20465;-76
2022/07/02 06:52:06;;;;;;;0.60;0.20;;;18.80;1.00;;;;;;4969103;28;20449;-76
2022/07/02 06:54:33;;;;;;;0.60;0.10;;;18.90;1.00;;;;;;4973283;28;20454;-76
2022/07/02 06:57:01;;;;;;;0.60;0.10;;;18.90;1.00;;;;;;4973304;28;20609;-76
2022/07/02 06:59:30;;;;;;;0.60;0.20;;;19.00;1.00;;;;;;4973805;28;20449;-77
2022/07/02 07:01:59;;;;;;;0.60;0.10;;;19.10;1.00;;;;;;4958947;28;20451;-77
2022/07/02 07:04:38;;;;;;;0.60;0.10;;;19.20;1.00;;;;;;4954272;28;20953;-76
2022/07/02 07:07:08;;;;;;;0.60;0.10;;;19.20;1.00;;;;;;4954466;28;20438;-77
2022/07/02 07:09:36;;;;;;;0.60;0.20;;;19.30;1.00;;;;;;4958099;29;20455;-77
2022/07/02 07:12:06;;;;;;;0.60;0.20;;;19.40;1.00;;;;;;4974681;28;20463;-76
2022/07/02 07:14:35;;;;;;;0.60;0.20;;;19.50;1.00;;;;;;4977144;28;20442;-77
2022/07/02 07:17:05;;;;;;;0.70;0.40;;;19.50;1.00;;;;;;4976660;28;20576;-75
2022/07/02 07:19:32;;;;;;;0.60;0.10;;;19.60;1.00;;;;;;4977000;28;20534;-77
2022/07/02 07:22:01;;;;;;;0.70;0.20;;;19.60;1.00;;;;;;4960547;28;20466;-76
2022/07/02 07:24:29;;;;;;;0.60;0.20;;;19.70;1.00;;;;;;4957679;29;20547;-76
2022/07/02 07:26:58;;;;;;;0.60;0.10;;;19.70;1.00;;;;;;4957524;29;20506;-77
2022/07/02 07:29:26;;;;;;;0.60;0.20;;;19.90;1.00;;;;;;4958560;29;20454;-76
2022/07/02 07:31:54;;;;;;;0.60;0.10;;;20.00;99.90;;;;;;4977085;28;20533;-77
2022/07/02 07:34:23;;;;;;;0.60;0.20;;;20.00;99.90;;;;;;4984231;28;20461;-77
2022/07/02 07:36:53;;;;;;;0.60;0.20;;;20.00;99.90;;;;;;4978160;28;20482;-76
2022/07/02 07:39:20;;;;;;;0.60;0.10;;;20.00;99.90;;;;;;4978855;28;20830;-77
2022/07/02 07:41:48;;;;;;;0.60;0.10;;;20.10;99.90;;;;;;4961521;28;20455;-76
2022/07/02 07:44:16;;;;;;;0.60;0.10;;;20.20;99.90;;;;;;4958584;29;20453;-77
2022/07/02 07:46:44;;;;;;;0.70;0.40;;;20.30;99.90;;;;;;4958247;29;20469;-77
2022/07/02 07:49:14;;;;;;;0.60;0.10;;;20.30;99.90;;;;;;4959506;29;20450;-76
2022/07/02 07:51:43;;;;;;;0.60;0.20;;;20.30;99.90;;;;;;4973404;28;20545;-77
2022/07/02 07:54:11;;;;;;;1.30;0.50;;;20.40;99.90;;;;;;4976898;28;20477;-78
2022/07/02 07:56:41;;;;;;;0.60;0.10;;;20.50;99.90;;;;;;4976882;28;20933;-77
2022/07/02 07:59:09;;;;;;;0.60;0.20;;;20.60;99.90;;;;;;4976004;28;20468;-77
2022/07/02 08:01:37;;;;;;;0.70;0.10;;;20.60;99.90;;;;;;4958645;28;20813;-77
2022/07/02 08:04:05;;;;;;;0.60;0.10;;;20.70;99.90;;;;;;4957021;28;20837;-76
2022/07/02 08:06:33;;;;;;;0.70;0.20;;;20.80;99.90;;;;;;4956305;28;21068;-76
2022/07/02 08:09:02;;;;;;;0.70;0.20;;;20.90;99.90;;;;;;4957200;29;20774;-76
2022/07/02 08:11:30;;;;;;;0.63;0.20;;;21.00;99.90;;;;;;4957041;28;20447;-77
2022/07/02 08:13:59;;;;;;;0.70;0.10;;;21.00;99.90;;;;;;4951169;28;20477;-77
2022/07/02 08:16:27;;;;;;;0.63;0.10;;;21.10;99.90;;;;;;4956477;29;20469;-77
2022/07/02 08:18:55;;;;;;;0.70;0.10;;;21.10;99.90;;;;;;4955651;28;20436;-76
2022/07/02 08:21:23;;;;;;;0.70;0.10;;;21.20;99.90;;;;;;4974018;28;20457;-77
2022/07/02 08:23:51;;;;;;;0.70;0.20;;;21.30;99.90;;;;;;4976567;28;20465;-76
2022/07/02 08:26:20;;;;;;;0.70;0.20;;;21.40;99.90;;;;;;4978501;28;20989;-77
2022/07/02 08:28:48;;;;;;;0.70;0.20;;;21.40;99.90;;;;;;4964061;28;21026;-77
2022/07/02 08:31:17;;;;;;;0.70;0.20;;;;;;;;;;4958491;28;20993;-76
2022/07/02 08:33:45;;;;;;;0.70;0.10;;;21.50;99.90;;;;;;4958046;29;20458;-77
2022/07/02 08:36:12;;;;;;;0.70;0.10;;;21.50;99.90;;;;;;4957933;29;20847;-76
2022/07/02 08:38:41;;;;;;;0.70;0.20;;;21.60;99.90;;;;;;4957838;29;20482;-77
2022/07/02 08:41:12;;;;;;;0.70;0.10;;;21.60;99.90;;;;;;4973733;28;20450;-78
2022/07/02 08:43:43;;;;;;;0.80;0.43;;;21.70;99.90;;;;;;4978018;28;20450;-77
2022/07/02 08:46:12;;;;;;;0.70;0.10;;;21.80;99.90;;;;;;4977845;28;20465;-76
2022/07/02 08:48:41;;;;;;;0.70;0.10;;;21.80;99.90;;;;;;4978427;28;20443;-78
2022/07/02 08:51:11;;;;;;;0.70;0.20;;;21.90;99.90;;;;;;4962089;28;20451;-77
2022/07/02 08:53:40;;;;;;;0.70;0.10;;;22.00;99.90;;;;;;4956741;29;20459;-77
2022/07/02 08:56:08;;;;;;;0.70;0.10;;;22.00;99.90;;;;;;4956482;29;20534;-77
2022/07/02 08:58:38;;;;;;;0.70;0.10;;;22.10;99.90;;;;;;4955915;29;20491;-74
2022/07/02 09:01:10;;;;;;;0.70;0.10;;;22.10;99.90;;;;;;4939400;28;20519;-77
2022/07/02 09:03:39;;;;;;;0.70;0.20;;;22.20;99.90;;;;;;4937201;29;20927;-77
2022/07/02 09:06:11;;;;;;;0.87;0.50;;;22.40;99.90;;;;;;4955901;23;20570;-72
2022/07/02 09:08:39;;;;;;;0.70;0.20;;;22.40;99.90;;;;;;4955224;29;20447;-74
2022/07/02 09:11:08;;;;;;;0.70;0.10;;;22.40;99.90;;;;;;4954847;29;20493;-73
2022/07/02 09:13:36;;;;;;;0.70;0.20;;;22.50;99.90;;;;;;4954935;29;20450;-72
2022/07/02 09:16:07;;;;;;;0.70;0.10;;;22.50;99.90;;;;;;4945240;29;21009;-71
2022/07/02 09:18:35;;;;;;;0.70;0.10;;;22.60;99.90;;;;;;4935032;29;20490;-72
2022/07/02 09:21:10;;;;;;;0.70;0.20;;;22.60;99.90;;;;;;4935304;29;20451;-74
2022/07/02 09:23:46;;;;;;;0.70;0.10;;;22.70;99.90;;;;;;4935677;29;20817;-72
2022/07/02 09:26:18;;;;;;;0.70;0.20;;;22.80;99.90;;;;;;4935231;29;20466;-72
2022/07/02 09:28:56;;;;;;;0.70;0.10;;;22.90;99.90;;;;;;4935019;29;20455;-72
2022/07/02 09:31:25;;;;;;;0.70;0.20;;;22.90;99.90;;;;;;4935271;29;20440;-72
2022/07/02 09:33:54;;;;;;;0.70;0.10;;;22.80;99.90;;;;;;4936035;29;20511;-74
2022/07/02 09:36:22;;;;;;;0.70;0.20;;;22.80;99.90;;;;;;4935473;29;20478;-73
2022/07/02 09:38:53;;;;;;;1.23;0.50;;;22.90;99.90;;;;;;4935413;29;20595;-72
2022/07/02 09:41:23;;;;;;;0.70;0.10;;;23.00;99.90;;;;;;4935531;29;20451;-73
2022/07/02 09:43:58;;;;;;;0.70;0.10;;;23.10;99.90;;;;;;4935896;29;20480;-73
2022/07/02 09:46:29;;;;;;;0.70;0.10;;;23.30;99.90;;;;;;4934929;29;20838;-72
2022/07/02 09:49:07;;;;;;;0.70;0.10;;;23.20;99.90;;;;;;4935532;29;20512;-76
2022/07/02 09:51:46;;;;;;;0.70;0.13;;;23.30;99.90;;;;;;4935414;29;20537;-72
2022/07/02 09:54:19;;;;;;;0.70;0.20;;;23.40;99.90;;;;;;4935438;29;20451;-73
2022/07/02 09:56:57;;;;;;;0.70;0.10;;;23.50;99.90;;;;;;4934769;29;20484;-73
2022/07/02 09:59:25;;;;;;;0.70;0.10;;;23.60;99.90;;;;;;4934860;29;21235;-73
2022/07/02 10:01:55;;;;;;;0.70;0.10;;;23.70;99.90;;;;;;4935059;29;20450;-75
2022/07/02 10:04:30;;;;;;;0.70;0.10;;;23.80;99.90;;;;;;4935077;29;20454;-73
2022/07/02 10:06:59;;;;;;;0.70;0.10;;;23.90;99.90;;;;;;4934643;29;20479;-73
2022/07/02 10:09:28;;;;;;;0.70;0.10;;;23.90;99.90;;;;;;4934075;29;20577;-73
2022/07/02 10:11:57;;;;;;;0.70;0.20;;;24.00;99.90;;;;;;4935430;29;20540;-72
2022/07/02 10:14:29;;;;;;;0.70;0.30;;;24.00;99.90;;;;;;4934604;29;20448;-72
2022/07/02 10:17:00;;;;;;;0.70;0.10;;;24.00;99.90;;;;;;4934312;29;20983;-72
2022/07/02 10:19:29;;;;;;;0.70;0.20;;;24.10;99.90;;;;;;4934547;29;20492;-73
2022/07/02 10:21:59;;;;;;;0.70;0.10;;;24.10;99.90;;;;;;4934977;29;20455;-74
2022/07/02 10:24:27;;;;;;;0.70;0.20;;;24.30;99.90;;;;;;4934397;29;20472;-74
2022/07/02 10:26:56;;;;;;;0.70;0.10;;;24.40;99.90;;;;;;4934163;29;20479;-74
2022/07/02 10:29:24;;;;;;;0.70;0.10;;;24.50;99.90;;;;;;4934619;29;20448;-75
2022/07/02 10:32:05;;;;;;;0.70;0.20;;;24.60;99.90;;;;;;4934635;29;20471;-75
2022/07/02 10:34:45;;;;;;;1.13;0.87;;;24.70;99.90;;;;;;4934271;29;20448;-72
2022/07/02 10:37:13;;;;;;;0.70;0.17;;;24.70;99.90;;;;;;4934450;29;21102;-72
2022/07/02 10:39:43;;;;;;;0.70;0.10;;;24.70;99.90;;;;;;4934605;29;20483;-72
2022/07/02 10:42:11;;;;;;;0.70;0.20;;;24.60;99.90;;;;;;4935254;29;20455;-72
2022/07/02 10:44:40;;;;;;;0.70;0.20;;;24.70;99.90;;;;;;4938833;29;20531;-73
2022/07/02 10:47:19;;;;;;;0.70;0.20;;;24.70;99.90;;;;;;4938238;29;20472;-74
2022/07/02 10:49:57;;;;;;;2.00;1.90;;;24.90;99.90;;;;;;4919534;29;20444;-76
2022/07/02 10:52:38;;;;;;;1.00;0.20;;;;;;;;;;4919812;29;20503;-73
2022/07/02 10:55:06;;;;;;;0.70;0.10;;;24.90;99.90;;;;;;4919255;29;20437;-73
2022/07/02 10:57:34;;;;;;;0.70;0.20;;;24.90;99.90;;;;;;4919267;29;20555;-74
2022/07/02 11:00:03;;;;;;;0.70;0.10;;;24.80;99.90;;;;;;4919777;29;20508;-73
2022/07/02 11:02:36;;;;;;;0.70;0.10;;;25.00;99.90;;;;;;4919778;29;20459;-74
2022/07/02 11:05:12;;;;;;;0.90;0.20;;;25.20;99.90;;;;;;4918564;29;20516;-73
2022/07/02 11:07:44;;;;;;;0.70;0.20;;;25.20;99.90;;;;;;4919043;29;20806;-74
2022/07/02 11:10:12;;;;;;;0.70;0.10;;;25.30;99.90;;;;;;4919366;29;20445;-73
2022/07/02 11:12:47;;;;;;;0.70;0.10;;;25.30;99.90;;;;;;4938232;29;20451;-75
2022/07/02 11:15:19;;;;;;;0.70;0.20;;;25.40;99.90;;;;;;4937717;29;21028;-73
2022/07/02 11:17:52;;;;;;;0.70;0.20;;;25.30;99.90;;;;;;4936886;29;20455;-73
2022/07/02 11:20:26;;;;;;;0.70;0.10;;;25.40;99.90;;;;;;4937810;29;21010;-73
2022/07/02 11:22:55;;;;;;;0.70;0.10;;;25.40;99.90;;;;;;4937702;29;20448;-74
2022/07/02 11:25:23;;;;;;;0.70;0.20;;;25.40;99.90;;;;;;4937665;29;20471;-73
2022/07/02 11:27:58;;;;;;;0.70;0.23;;;25.40;99.90;;;;;;4937755;29;20483;-72
2022/07/02 11:30:28;;;;;;;0.70;0.10;;;25.40;99.90;;;;;;4937888;29;20538;-72
2022/07/02 11:32:58;;;;;;;0.70;0.10;;;25.40;99.90;;;;;;4937094;29;20993;-72
2022/07/02 11:35:26;;;;;;;0.70;0.10;;;25.60;99.90;;;;;;4937430;29;20464;-73
2022/07/02 11:37:57;;;;;;;0.70;0.20;;;25.60;99.90;;;;;;4937259;29;20478;-72
2022/07/02 11:40:27;;;;;;;0.70;0.20;;;25.70;99.90;;;;;;4937447;29;20484;-72
2022/07/02 11:42:55;;;;;;;0.70;0.10;;;25.80;99.90;;;;;;4937493;29;20458;-72
2022/07/02 11:45:23;;;;;;;0.70;0.20;;;25.80;99.90;;;;;;4937631;29;20483;-74
2022/07/02 11:47:52;;;;;;;0.70;0.10;;;25.80;99.90;;;;;;4936751;29;20822;-74
2022/07/02 11:50:32;;;;;;;0.70;0.10;;;25.90;99.90;;;;;;4937305;29;20765;-73
2022/07/02 11:53:00;;;;;;;0.70;0.10;;;26.00;99.90;;;;;;4936916;29;20454;-72
2022/07/02 11:55:28;;;;;;;0.70;0.10;;;26.10;99.90;;;;;;4936958;29;20474;-74
2022/07/02 11:57:55;;;;;;;0.70;0.10;;;26.20;99.90;;;;;;4936698;29;20955;-73
2022/07/02 12:00:30;;;;;;;0.70;0.20;;;26.30;99.90;;;;;;4936862;29;20498;-74
2022/07/02 12:02:58;;;;;;;0.70;0.10;;;26.30;99.90;;;;;;4937214;29;20452;-74
2022/07/02 12:05:26;;;;;;;0.70;0.13;;;26.40;99.90;;;;;;4936832;29;20480;-73
2022/07/02 12:07:55;;;;;;;0.70;0.20;;;26.40;99.90;;;;;;4935730;29;20440;-73
2022/07/02 12:10:23;;;;;;;0.70;0.10;;;26.40;99.90;;;;;;4937071;29;20440;-73
2022/07/02 12:12:51;;;;;;;0.70;0.30;;;26.30;99.90;;;;;;4936939;29;20452;-73
2022/07/02 12:15:18;;;;;;;0.70;0.10;;;26.30;99.90;;;;;;4936721;29;20487;-73
2022/07/02 12:17:47;;;;;;;0.70;0.10;;;26.40;99.90;;;;;;4936325;29;20459;-74
2022/07/02 12:20:17;;;;;;;0.70;0.20;;;26.50;99.90;;;;;;4936564;29;20488;-76
2022/07/02 12:22:52;;;;;;;0.70;0.10;;;26.60;99.90;;;;;;4936610;29;20959;-75
2022/07/02 12:25:22;;;;;;;0.70;0.20;;;26.70;99.90;;;;;;4936604;29;20495;-74
2022/07/02 12:27:54;;;;;;;0.70;0.10;;;26.80;99.90;;;;;;4936236;29;20965;-75
2022/07/02 12:30:21;;;;;;;0.70;0.20;;;26.90;99.90;;;;;;4936390;29;20452;-73
2022/07/02 12:32:53;;;;;;;0.70;0.13;;;26.80;99.90;;;;;;4936813;29;20440;-73
2022/07/02 12:35:21;;;;;;;0.70;0.20;;;26.50;99.90;;;;;;4936433;29;20478;-73
2022/07/02 12:37:52;;;;;;;0.70;0.20;;;26.50;99.90;;;;;;4936567;29;20454;-73
2022/07/02 12:40:22;;;;;;;0.70;0.10;;;26.40;99.90;;;;;;4936252;29;20524;-74
2022/07/02 12:42:52;;;;;;;0.70;0.10;;;26.40;99.90;;;;;;4936461;29;20818;-73
2022/07/02 12:45:25;;;;;;;0.70;0.10;;;26.50;99.90;;;;;;4936826;29;20483;-75
2022/07/02 12:47:58;;;;;;;0.70;0.10;;;26.50;99.90;;;;;;4936053;29;20856;-74
2022/07/02 12:50:28;;;;;;;0.90;0.50;;;26.60;99.90;;;;;;4936386;29;20467;-75
2022/07/02 12:53:01;;;;;;;0.70;0.10;;;26.90;99.90;;;;;;4936874;29;20483;-74
2022/07/02 12:55:32;;;;;;;0.70;0.10;;;26.90;99.90;;;;;;4935844;29;20990;-74
2022/07/02 12:58:06;;;;;;;0.70;0.20;;;26.90;99.90;;;;;;4935871;29;20526;-74
2022/07/02 13:00:35;;;;;;;0.70;0.20;;;27.00;99.90;;;;;;4936232;29;20498;-73
2022/07/02 13:03:05;;;;;;;0.70;0.10;;;26.90;99.90;;;;;;4936623;29;20558;-74
2022/07/02 13:05:36;;;;;;;0.70;0.10;;;26.80;99.90;;;;;;4935400;29;20483;-75
2022/07/02 13:08:05;;;;;;;0.70;0.10;;;26.80;99.90;;;;;;4935788;29;20456;-73
2022/07/02 13:10:34;;;;;;;0.70;0.10;;;26.70;99.90;;;;;;4936205;29;20444;-73
2022/07/02 13:13:03;;;;;;;1.03;0.93;;;26.70;99.90;;;;;;4936186;29;20448;-73